sensor_id;sensor_type;location;lat;lon;timestamp;P1;durP1;ratioP1;P2;durP2;ratioP2
67986;SDS011;54767;53.800;15.956;2022-10-16T00:00:55;8.90;;;6.70;;
67986;SDS011;54767;53.800;15.956;2022-10-16T00:03:34;8.60;;;6.80;;
67986;SDS011;54767;53.800;15.956;2022-10-16T00:06:01;7.50;;;6.20;;
67986;SDS011;54767;53.800;15.956;2022-10-16T00:08:28;9.60;;;6.80;;
67986;SDS011;54767;53.800;15.956;2022-10-16T00:11:18;9.90;;;6.90;;
67986;SDS011;54767;53.800;15.956;2022-10-16T00:13:51;8.70;;;6.40;;
67986;SDS011;54767;53.800;15.956;2022-10-16T00:16:21;8.90;;;6.30;;
67986;SDS011;54767;53.800;15.956;2022-10-16T00:18:47;7.40;;;5.90;;
67986;SDS011;54767;53.800;15.956;2022-10-16T00:21:18;9.00;;;5.60;;
67986;SDS011;54767;53.800;15.956;2022-10-16T00:23:54;8.10;;;5.80;;
67986;SDS011;54767;53.800;15.956;2022-10-16T00:26:26;8.90;;;6.10;;
67986;SDS011;54767;53.800;15.956;2022-10-16T00:28:53;7.70;;;5.90;;
67986;SDS011;54767;53.800;15.956;2022-10-16T00:31:21;6.80;;;6.10;;
67986;SDS011;54767;53.800;15.956;2022-10-16T00:33:49;8.50;;;6.20;;
67986;SDS011;54767;53.800;15.956;2022-10-16T00:36:18;8.00;;;6.30;;
67986;SDS011;54767;53.800;15.956;2022-10-16T00:38:46;11.20;;;6.80;;
67986;SDS011;54767;53.800;15.956;2022-10-16T00:41:16;8.50;;;6.40;;
67986;SDS011;54767;53.800;15.956;2022-10-16T00:43:48;8.40;;;6.40;;
67986;SDS011;54767;53.800;15.956;2022-10-16T00:49:00;12.00;;;7.40;;
67986;SDS011;54767;53.800;15.956;2022-10-16T00:51:36;12.70;;;7.70;;
67986;SDS011;54767;53.800;15.956;2022-10-16T00:54:09;10.20;;;7.30;;
67986;SDS011;54767;53.800;15.956;2022-10-16T00:56:43;9.90;;;7.10;;
67986;SDS011;54767;53.800;15.956;2022-10-16T01:01:55;9.00;;;6.50;;
67986;SDS011;54767;53.800;15.956;2022-10-16T01:04:23;9.60;;;7.60;;
67986;SDS011;54767;53.800;15.956;2022-10-16T01:17:53;11.40;;;7.80;;
67986;SDS011;54767;53.800;15.956;2022-10-16T01:20:31;12.10;;;7.10;;
67986;SDS011;54767;53.800;15.956;2022-10-16T01:28:55;11.80;;;6.70;;
67986;SDS011;54767;53.800;15.956;2022-10-16T01:31:25;13.30;;;7.40;;
67986;SDS011;54767;53.800;15.956;2022-10-16T01:34:13;10.70;;;7.20;;
67986;SDS011;54767;53.800;15.956;2022-10-16T01:36:48;13.00;;;7.80;;
67986;SDS011;54767;53.800;15.956;2022-10-16T01:39:25;9.60;;;7.10;;
67986;SDS011;54767;53.800;15.956;2022-10-16T01:42:08;9.80;;;6.90;;
67986;SDS011;54767;53.800;15.956;2022-10-16T01:44:39;12.90;;;7.00;;
67986;SDS011;54767;53.800;15.956;2022-10-16T01:47:08;9.70;;;6.90;;
67986;SDS011;54767;53.800;15.956;2022-10-16T01:49:37;9.50;;;6.80;;
67986;SDS011;54767;53.800;15.956;2022-10-16T01:52:08;8.50;;;6.80;;
67986;SDS011;54767;53.800;15.956;2022-10-16T01:54:40;11.60;;;6.70;;
67986;SDS011;54767;53.800;15.956;2022-10-16T01:57:10;13.20;;;7.60;;
67986;SDS011;54767;53.800;15.956;2022-10-16T01:59:40;9.70;;;6.60;;
67986;SDS011;54767;53.800;15.956;2022-10-16T02:02:11;8.10;;;6.50;;
67986;SDS011;54767;53.800;15.956;2022-10-16T02:04:46;10.40;;;6.70;;
67986;SDS011;54767;53.800;15.956;2022-10-16T02:07:16;9.70;;;6.70;;
67986;SDS011;54767;53.800;15.956;2022-10-16T02:09:43;11.30;;;7.00;;
67986;SDS011;54767;53.800;15.956;2022-10-16T02:12:12;11.60;;;6.80;;
67986;SDS011;54767;53.800;15.956;2022-10-16T02:14:42;9.90;;;6.70;;
67986;SDS011;54767;53.800;15.956;2022-10-16T02:17:12;9.60;;;6.60;;
67986;SDS011;54767;53.800;15.956;2022-10-16T02:19:40;8.20;;;6.40;;
67986;SDS011;54767;53.800;15.956;2022-10-16T02:22:09;10.50;;;7.00;;
67986;SDS011;54767;53.800;15.956;2022-10-16T02:25:06;9.90;;;6.60;;
67986;SDS011;54767;53.800;15.956;2022-10-16T02:32:45;10.60;;;6.80;;
67986;SDS011;54767;53.800;15.956;2022-10-16T02:35:16;10.00;;;6.30;;
67986;SDS011;54767;53.800;15.956;2022-10-16T02:37:45;11.10;;;6.90;;
67986;SDS011;54767;53.800;15.956;2022-10-16T02:40:13;11.60;;;6.30;;
67986;SDS011;54767;53.800;15.956;2022-10-16T02:42:41;11.10;;;6.80;;
67986;SDS011;54767;53.800;15.956;2022-10-16T02:45:09;7.60;;;6.40;;
67986;SDS011;54767;53.800;15.956;2022-10-16T02:47:36;8.40;;;6.40;;
67986;SDS011;54767;53.800;15.956;2022-10-16T02:50:04;9.20;;;6.20;;
67986;SDS011;54767;53.800;15.956;2022-10-16T02:52:31;9.60;;;5.60;;
67986;SDS011;54767;53.800;15.956;2022-10-16T02:54:58;10.50;;;6.20;;
67986;SDS011;54767;53.800;15.956;2022-10-16T02:57:25;8.30;;;5.50;;
67986;SDS011;54767;53.800;15.956;2022-10-16T02:59:52;7.90;;;6.00;;
67986;SDS011;54767;53.800;15.956;2022-10-16T03:02:19;9.40;;;6.50;;
67986;SDS011;54767;53.800;15.956;2022-10-16T03:04:46;10.40;;;6.70;;
67986;SDS011;54767;53.800;15.956;2022-10-16T03:07:12;11.20;;;6.80;;
67986;SDS011;54767;53.800;15.956;2022-10-16T03:09:39;10.20;;;6.40;;
67986;SDS011;54767;53.800;15.956;2022-10-16T03:12:06;8.10;;;6.10;;
67986;SDS011;54767;53.800;15.956;2022-10-16T03:14:33;9.00;;;6.20;;
67986;SDS011;54767;53.800;15.956;2022-10-16T03:17:00;8.70;;;6.30;;
67986;SDS011;54767;53.800;15.956;2022-10-16T03:19:27;12.60;;;6.70;;
67986;SDS011;54767;53.800;15.956;2022-10-16T03:21:54;8.50;;;6.30;;
67986;SDS011;54767;53.800;15.956;2022-10-16T03:24:20;11.10;;;6.10;;
67986;SDS011;54767;53.800;15.956;2022-10-16T03:26:47;8.80;;;5.80;;
67986;SDS011;54767;53.800;15.956;2022-10-16T03:29:14;7.10;;;5.30;;
67986;SDS011;54767;53.800;15.956;2022-10-16T03:31:40;7.10;;;5.80;;
67986;SDS011;54767;53.800;15.956;2022-10-16T03:34:07;7.30;;;5.60;;
67986;SDS011;54767;53.800;15.956;2022-10-16T03:36:34;6.50;;;5.00;;
67986;SDS011;54767;53.800;15.956;2022-10-16T03:39:01;5.40;;;4.90;;
67986;SDS011;54767;53.800;15.956;2022-10-16T03:41:28;5.60;;;4.90;;
67986;SDS011;54767;53.800;15.956;2022-10-16T03:43:55;7.80;;;5.60;;
67986;SDS011;54767;53.800;15.956;2022-10-16T03:46:21;5.60;;;4.80;;
67986;SDS011;54767;53.800;15.956;2022-10-16T03:48:48;6.90;;;5.00;;
67986;SDS011;54767;53.800;15.956;2022-10-16T03:51:15;6.60;;;5.00;;
67986;SDS011;54767;53.800;15.956;2022-10-16T03:53:42;6.40;;;4.80;;
67986;SDS011;54767;53.800;15.956;2022-10-16T03:56:08;6.80;;;4.80;;
67986;SDS011;54767;53.800;15.956;2022-10-16T03:58:35;8.10;;;5.60;;
67986;SDS011;54767;53.800;15.956;2022-10-16T04:01:02;6.30;;;4.90;;
67986;SDS011;54767;53.800;15.956;2022-10-16T04:03:29;9.00;;;5.30;;
67986;SDS011;54767;53.800;15.956;2022-10-16T04:05:55;6.70;;;4.70;;
67986;SDS011;54767;53.800;15.956;2022-10-16T04:08:22;7.70;;;5.70;;
67986;SDS011;54767;53.800;15.956;2022-10-16T04:10:49;7.40;;;5.90;;
67986;SDS011;54767;53.800;15.956;2022-10-16T04:13:17;8.60;;;5.50;;
67986;SDS011;54767;53.800;15.956;2022-10-16T04:15:44;6.30;;;5.50;;
67986;SDS011;54767;53.800;15.956;2022-10-16T04:18:12;8.00;;;5.20;;
67986;SDS011;54767;53.800;15.956;2022-10-16T04:20:40;6.50;;;5.30;;
67986;SDS011;54767;53.800;15.956;2022-10-16T04:23:06;6.90;;;5.50;;
67986;SDS011;54767;53.800;15.956;2022-10-16T04:25:33;7.50;;;5.70;;
67986;SDS011;54767;53.800;15.956;2022-10-16T04:28:00;7.90;;;5.40;;
67986;SDS011;54767;53.800;15.956;2022-10-16T04:30:27;6.60;;;5.80;;
67986;SDS011;54767;53.800;15.956;2022-10-16T04:32:53;9.70;;;6.30;;
67986;SDS011;54767;53.800;15.956;2022-10-16T04:35:20;12.80;;;6.30;;
67986;SDS011;54767;53.800;15.956;2022-10-16T04:37:48;9.10;;;6.10;;
67986;SDS011;54767;53.800;15.956;2022-10-16T04:40:14;7.60;;;5.70;;
67986;SDS011;54767;53.800;15.956;2022-10-16T04:42:41;12.10;;;5.90;;
67986;SDS011;54767;53.800;15.956;2022-10-16T04:45:08;8.20;;;6.20;;
67986;SDS011;54767;53.800;15.956;2022-10-16T04:47:40;8.10;;;5.90;;
67986;SDS011;54767;53.800;15.956;2022-10-16T04:50:07;7.90;;;6.20;;
67986;SDS011;54767;53.800;15.956;2022-10-16T04:52:34;7.70;;;5.50;;
67986;SDS011;54767;53.800;15.956;2022-10-16T04:55:06;6.80;;;5.70;;
67986;SDS011;54767;53.800;15.956;2022-10-16T04:57:33;10.00;;;6.60;;
67986;SDS011;54767;53.800;15.956;2022-10-16T05:00:00;8.00;;;6.20;;
67986;SDS011;54767;53.800;15.956;2022-10-16T05:02:27;9.10;;;6.50;;
67986;SDS011;54767;53.800;15.956;2022-10-16T05:04:54;9.40;;;6.40;;
67986;SDS011;54767;53.800;15.956;2022-10-16T05:07:21;7.80;;;5.90;;
67986;SDS011;54767;53.800;15.956;2022-10-16T05:09:48;8.70;;;6.10;;
67986;SDS011;54767;53.800;15.956;2022-10-16T05:12:14;7.40;;;5.90;;
67986;SDS011;54767;53.800;15.956;2022-10-16T05:14:41;8.00;;;6.30;;
67986;SDS011;54767;53.800;15.956;2022-10-16T05:17:07;7.00;;;5.80;;
67986;SDS011;54767;53.800;15.956;2022-10-16T05:19:34;7.60;;;5.70;;
67986;SDS011;54767;53.800;15.956;2022-10-16T05:22:01;9.10;;;6.20;;
67986;SDS011;54767;53.800;15.956;2022-10-16T05:24:28;8.60;;;6.20;;
67986;SDS011;54767;53.800;15.956;2022-10-16T05:26:55;6.50;;;5.80;;
67986;SDS011;54767;53.800;15.956;2022-10-16T05:29:22;8.30;;;6.00;;
67986;SDS011;54767;53.800;15.956;2022-10-16T05:31:50;6.70;;;5.40;;
67986;SDS011;54767;53.800;15.956;2022-10-16T05:34:17;8.20;;;6.00;;
67986;SDS011;54767;53.800;15.956;2022-10-16T05:36:44;7.60;;;5.60;;
67986;SDS011;54767;53.800;15.956;2022-10-16T05:39:11;7.00;;;6.00;;
67986;SDS011;54767;53.800;15.956;2022-10-16T05:41:38;7.40;;;5.50;;
67986;SDS011;54767;53.800;15.956;2022-10-16T05:44:05;7.60;;;5.50;;
67986;SDS011;54767;53.800;15.956;2022-10-16T05:46:32;6.30;;;5.40;;
67986;SDS011;54767;53.800;15.956;2022-10-16T05:48:59;8.90;;;6.10;;
67986;SDS011;54767;53.800;15.956;2022-10-16T05:51:26;8.60;;;6.30;;
67986;SDS011;54767;53.800;15.956;2022-10-16T05:53:53;7.90;;;5.80;;
67986;SDS011;54767;53.800;15.956;2022-10-16T05:56:19;8.20;;;6.00;;
67986;SDS011;54767;53.800;15.956;2022-10-16T05:58:46;9.40;;;6.60;;
67986;SDS011;54767;53.800;15.956;2022-10-16T06:01:14;11.10;;;6.20;;
67986;SDS011;54767;53.800;15.956;2022-10-16T06:03:42;9.30;;;6.50;;
67986;SDS011;54767;53.800;15.956;2022-10-16T06:06:14;9.80;;;6.20;;
67986;SDS011;54767;53.800;15.956;2022-10-16T06:08:43;12.90;;;6.80;;
67986;SDS011;54767;53.800;15.956;2022-10-16T06:11:13;8.70;;;6.60;;
67986;SDS011;54767;53.800;15.956;2022-10-16T06:13:44;10.10;;;6.70;;
67986;SDS011;54767;53.800;15.956;2022-10-16T06:16:15;7.70;;;6.10;;
67986;SDS011;54767;53.800;15.956;2022-10-16T06:18:41;6.50;;;5.70;;
67986;SDS011;54767;53.800;15.956;2022-10-16T06:21:09;6.60;;;5.40;;
67986;SDS011;54767;53.800;15.956;2022-10-16T06:23:37;7.30;;;5.30;;
67986;SDS011;54767;53.800;15.956;2022-10-16T06:26:05;8.70;;;5.70;;
67986;SDS011;54767;53.800;15.956;2022-10-16T06:28:36;8.30;;;6.00;;
67986;SDS011;54767;53.800;15.956;2022-10-16T06:31:04;9.60;;;5.50;;
67986;SDS011;54767;53.800;15.956;2022-10-16T06:33:35;6.70;;;6.00;;
67986;SDS011;54767;53.800;15.956;2022-10-16T06:36:03;6.70;;;5.50;;
67986;SDS011;54767;53.800;15.956;2022-10-16T06:38:32;6.40;;;5.50;;
67986;SDS011;54767;53.800;15.956;2022-10-16T06:40:59;7.30;;;5.50;;
67986;SDS011;54767;53.800;15.956;2022-10-16T06:43:26;6.80;;;5.60;;
67986;SDS011;54767;53.800;15.956;2022-10-16T06:45:58;7.20;;;6.10;;
67986;SDS011;54767;53.800;15.956;2022-10-16T06:48:26;7.20;;;6.30;;
67986;SDS011;54767;53.800;15.956;2022-10-16T06:51:27;7.30;;;6.50;;
67986;SDS011;54767;53.800;15.956;2022-10-16T06:53:49;7.50;;;6.70;;
67986;SDS011;54767;53.800;15.956;2022-10-16T06:56:34;8.70;;;7.30;;
67986;SDS011;54767;53.800;15.956;2022-10-16T06:59:01;7.60;;;6.80;;
67986;SDS011;54767;53.800;15.956;2022-10-16T07:01:28;8.20;;;6.60;;
67986;SDS011;54767;53.800;15.956;2022-10-16T07:03:55;8.90;;;6.60;;
67986;SDS011;54767;53.800;15.956;2022-10-16T07:06:23;8.40;;;7.60;;
67986;SDS011;54767;53.800;15.956;2022-10-16T07:08:51;7.60;;;6.70;;
67986;SDS011;54767;53.800;15.956;2022-10-16T07:11:20;7.00;;;5.70;;
67986;SDS011;54767;53.800;15.956;2022-10-16T07:16:23;6.90;;;5.90;;
67986;SDS011;54767;53.800;15.956;2022-10-16T07:18:56;6.70;;;6.10;;
67986;SDS011;54767;53.800;15.956;2022-10-16T07:21:29;7.70;;;6.40;;
67986;SDS011;54767;53.800;15.956;2022-10-16T07:24:01;7.00;;;6.10;;
67986;SDS011;54767;53.800;15.956;2022-10-16T07:26:29;6.70;;;6.00;;
67986;SDS011;54767;53.800;15.956;2022-10-16T07:28:57;6.30;;;5.60;;
67986;SDS011;54767;53.800;15.956;2022-10-16T07:31:25;8.90;;;6.30;;
67986;SDS011;54767;53.800;15.956;2022-10-16T07:33:52;7.00;;;6.00;;
67986;SDS011;54767;53.800;15.956;2022-10-16T07:36:20;6.90;;;5.90;;
67986;SDS011;54767;53.800;15.956;2022-10-16T07:38:47;10.00;;;6.90;;
67986;SDS011;54767;53.800;15.956;2022-10-16T07:41:15;6.30;;;5.60;;
67986;SDS011;54767;53.800;15.956;2022-10-16T07:43:50;6.70;;;5.60;;
67986;SDS011;54767;53.800;15.956;2022-10-16T07:46:19;6.60;;;5.60;;
67986;SDS011;54767;53.800;15.956;2022-10-16T07:48:47;6.20;;;5.50;;
67986;SDS011;54767;53.800;15.956;2022-10-16T07:51:15;6.40;;;5.70;;
67986;SDS011;54767;53.800;15.956;2022-10-16T07:53:48;6.30;;;5.70;;
67986;SDS011;54767;53.800;15.956;2022-10-16T07:56:15;7.20;;;6.30;;
67986;SDS011;54767;53.800;15.956;2022-10-16T07:58:43;7.10;;;5.90;;
67986;SDS011;54767;53.800;15.956;2022-10-16T08:01:11;6.40;;;5.70;;
67986;SDS011;54767;53.800;15.956;2022-10-16T08:03:44;6.30;;;5.70;;
67986;SDS011;54767;53.800;15.956;2022-10-16T08:06:13;6.30;;;5.70;;
67986;SDS011;54767;53.800;15.956;2022-10-16T08:08:40;6.40;;;5.80;;
67986;SDS011;54767;53.800;15.956;2022-10-16T08:11:07;6.00;;;5.30;;
67986;SDS011;54767;53.800;15.956;2022-10-16T08:13:34;6.20;;;5.60;;
67986;SDS011;54767;53.800;15.956;2022-10-16T08:16:01;5.30;;;4.90;;
67986;SDS011;54767;53.800;15.956;2022-10-16T08:18:29;5.80;;;5.20;;
67986;SDS011;54767;53.800;15.956;2022-10-16T08:20:57;6.00;;;5.20;;
67986;SDS011;54767;53.800;15.956;2022-10-16T08:23:25;8.70;;;5.90;;
67986;SDS011;54767;53.800;15.956;2022-10-16T08:25:53;6.20;;;5.20;;
67986;SDS011;54767;53.800;15.956;2022-10-16T08:28:22;8.10;;;6.10;;
67986;SDS011;54767;53.800;15.956;2022-10-16T08:30:49;7.80;;;5.70;;
67986;SDS011;54767;53.800;15.956;2022-10-16T08:33:16;7.60;;;5.30;;
67986;SDS011;54767;53.800;15.956;2022-10-16T08:35:42;6.00;;;5.40;;
67986;SDS011;54767;53.800;15.956;2022-10-16T08:38:16;5.50;;;5.00;;
67986;SDS011;54767;53.800;15.956;2022-10-16T08:40:42;5.20;;;4.80;;
67986;SDS011;54767;53.800;15.956;2022-10-16T08:51:02;4.90;;;4.30;;
67986;SDS011;54767;53.800;15.956;2022-10-16T08:53:31;4.30;;;3.90;;
67986;SDS011;54767;53.800;15.956;2022-10-16T08:56:08;4.70;;;4.30;;
67986;SDS011;54767;53.800;15.956;2022-10-16T08:58:34;4.50;;;4.10;;
67986;SDS011;54767;53.800;15.956;2022-10-16T09:01:03;5.60;;;3.70;;
67986;SDS011;54767;53.800;15.956;2022-10-16T09:06:16;5.20;;;3.60;;
67986;SDS011;54767;53.800;15.956;2022-10-16T09:12:08;4.20;;;3.40;;
67986;SDS011;54767;53.800;15.956;2022-10-16T09:14:40;3.60;;;3.10;;
67986;SDS011;54767;53.800;15.956;2022-10-16T09:17:38;6.10;;;3.10;;
67986;SDS011;54767;53.800;15.956;2022-10-16T09:23:19;3.30;;;3.00;;
67986;SDS011;54767;53.800;15.956;2022-10-16T09:56:52;4.20;;;2.40;;
67986;SDS011;54767;53.800;15.956;2022-10-16T10:57:02;3.70;;;1.90;;
67986;SDS011;54767;53.800;15.956;2022-10-16T11:02:37;2.80;;;1.60;;
67986;SDS011;54767;53.800;15.956;2022-10-16T11:11:41;4.70;;;1.60;;
67986;SDS011;54767;53.800;15.956;2022-10-16T11:14:30;4.50;;;2.90;;
67986;SDS011;54767;53.800;15.956;2022-10-16T11:24:00;2.10;;;1.90;;
67986;SDS011;54767;53.800;15.956;2022-10-16T11:28:20;2.70;;;2.00;;
67986;SDS011;54767;53.800;15.956;2022-10-16T11:31:55;4.80;;;2.40;;
67986;SDS011;54767;53.800;15.956;2022-10-16T11:34:52;2.90;;;2.00;;
67986;SDS011;54767;53.800;15.956;2022-10-16T11:41:42;2.90;;;1.90;;
67986;SDS011;54767;53.800;15.956;2022-10-16T11:49:59;4.20;;;2.50;;
67986;SDS011;54767;53.800;15.956;2022-10-16T11:55:23;3.20;;;2.00;;
67986;SDS011;54767;53.800;15.956;2022-10-16T12:06:25;8.60;;;2.80;;
67986;SDS011;54767;53.800;15.956;2022-10-16T12:09:00;6.70;;;2.50;;
67986;SDS011;54767;53.800;15.956;2022-10-16T12:15:27;4.00;;;2.20;;
67986;SDS011;54767;53.800;15.956;2022-10-16T12:18:21;11.70;;;5.80;;
67986;SDS011;54767;53.800;15.956;2022-10-16T12:25:53;3.40;;;2.70;;
67986;SDS011;54767;53.800;15.956;2022-10-16T12:28:34;4.70;;;3.50;;
67986;SDS011;54767;53.800;15.956;2022-10-16T12:31:03;6.70;;;3.70;;
67986;SDS011;54767;53.800;15.956;2022-10-16T12:33:33;5.70;;;2.60;;
67986;SDS011;54767;53.800;15.956;2022-10-16T12:36:03;6.30;;;2.90;;
67986;SDS011;54767;53.800;15.956;2022-10-16T12:38:50;6.00;;;3.10;;
67986;SDS011;54767;53.800;15.956;2022-10-16T12:43:56;3.40;;;2.70;;
67986;SDS011;54767;53.800;15.956;2022-10-16T12:53:01;6.20;;;1.80;;
67986;SDS011;54767;53.800;15.956;2022-10-16T12:56:24;5.30;;;3.00;;
67986;SDS011;54767;53.800;15.956;2022-10-16T13:08:54;2.00;;;1.60;;
67986;SDS011;54767;53.800;15.956;2022-10-16T13:17:27;3.30;;;1.80;;
67986;SDS011;54767;53.800;15.956;2022-10-16T13:20:15;2.80;;;1.90;;
67986;SDS011;54767;53.800;15.956;2022-10-16T13:33:37;3.10;;;2.10;;
67986;SDS011;54767;53.800;15.956;2022-10-16T13:36:43;2.30;;;1.70;;
67986;SDS011;54767;53.800;15.956;2022-10-16T13:39:24;3.50;;;2.30;;
67986;SDS011;54767;53.800;15.956;2022-10-16T13:42:06;4.30;;;2.80;;
67986;SDS011;54767;53.800;15.956;2022-10-16T13:44:47;8.90;;;3.30;;
67986;SDS011;54767;53.800;15.956;2022-10-16T13:47:17;7.00;;;4.60;;
67986;SDS011;54767;53.800;15.956;2022-10-16T13:49:58;2.50;;;2.10;;
67986;SDS011;54767;53.800;15.956;2022-10-16T13:52:27;5.30;;;2.40;;
67986;SDS011;54767;53.800;15.956;2022-10-16T13:54:57;4.80;;;2.30;;
67986;SDS011;54767;53.800;15.956;2022-10-16T13:57:28;5.00;;;3.40;;
67986;SDS011;54767;53.800;15.956;2022-10-16T13:59:55;2.10;;;1.90;;
67986;SDS011;54767;53.800;15.956;2022-10-16T14:02:31;4.40;;;3.00;;
67986;SDS011;54767;53.800;15.956;2022-10-16T14:05:02;4.20;;;2.70;;
67986;SDS011;54767;53.800;15.956;2022-10-16T14:11:05;2.50;;;2.30;;
67986;SDS011;54767;53.800;15.956;2022-10-16T14:13:37;4.80;;;2.90;;
67986;SDS011;54767;53.800;15.956;2022-10-16T14:16:06;7.40;;;3.20;;
67986;SDS011;54767;53.800;15.956;2022-10-16T14:18:39;3.90;;;2.50;;
67986;SDS011;54767;53.800;15.956;2022-10-16T14:21:07;4.20;;;2.80;;
67986;SDS011;54767;53.800;15.956;2022-10-16T14:23:46;3.30;;;2.70;;
67986;SDS011;54767;53.800;15.956;2022-10-16T14:26:14;6.60;;;4.10;;
67986;SDS011;54767;53.800;15.956;2022-10-16T14:28:43;28.30;;;5.10;;
67986;SDS011;54767;53.800;15.956;2022-10-16T14:34:23;6.40;;;3.00;;
67986;SDS011;54767;53.800;15.956;2022-10-16T14:36:56;2.80;;;2.40;;
67986;SDS011;54767;53.800;15.956;2022-10-16T14:39:27;2.20;;;2.00;;
67986;SDS011;54767;53.800;15.956;2022-10-16T14:42:00;2.70;;;2.50;;
67986;SDS011;54767;53.800;15.956;2022-10-16T14:44:34;6.60;;;4.20;;
67986;SDS011;54767;53.800;15.956;2022-10-16T14:47:09;5.20;;;2.80;;
67986;SDS011;54767;53.800;15.956;2022-10-16T14:49:41;2.50;;;2.30;;
67986;SDS011;54767;53.800;15.956;2022-10-16T14:52:10;2.20;;;2.10;;
67986;SDS011;54767;53.800;15.956;2022-10-16T14:54:51;2.80;;;2.50;;
67986;SDS011;54767;53.800;15.956;2022-10-16T14:58:51;4.00;;;2.80;;
67986;SDS011;54767;53.800;15.956;2022-10-16T15:01:19;3.80;;;3.30;;
67986;SDS011;54767;53.800;15.956;2022-10-16T15:03:49;2.70;;;2.50;;
67986;SDS011;54767;53.800;15.956;2022-10-16T15:06:18;2.60;;;2.40;;
67986;SDS011;54767;53.800;15.956;2022-10-16T15:08:54;2.70;;;2.50;;
67986;SDS011;54767;53.800;15.956;2022-10-16T15:11:21;2.60;;;2.40;;
67986;SDS011;54767;53.800;15.956;2022-10-16T15:13:48;3.30;;;3.00;;
67986;SDS011;54767;53.800;15.956;2022-10-16T15:16:36;3.00;;;2.50;;
67986;SDS011;54767;53.800;15.956;2022-10-16T15:19:03;2.40;;;2.20;;
67986;SDS011;54767;53.800;15.956;2022-10-16T15:21:31;2.70;;;2.50;;
67986;SDS011;54767;53.800;15.956;2022-10-16T15:27:38;4.60;;;2.50;;
67986;SDS011;54767;53.800;15.956;2022-10-16T15:30:11;4.90;;;3.00;;
67986;SDS011;54767;53.800;15.956;2022-10-16T15:32:38;5.10;;;3.50;;
67986;SDS011;54767;53.800;15.956;2022-10-16T15:35:07;6.60;;;4.60;;
67986;SDS011;54767;53.800;15.956;2022-10-16T15:40:04;5.20;;;3.70;;
67986;SDS011;54767;53.800;15.956;2022-10-16T15:42:32;3.30;;;3.00;;
67986;SDS011;54767;53.800;15.956;2022-10-16T15:45:09;3.30;;;3.10;;
67986;SDS011;54767;53.800;15.956;2022-10-16T15:48:01;3.30;;;3.00;;
67986;SDS011;54767;53.800;15.956;2022-10-16T15:50:29;4.30;;;3.10;;
67986;SDS011;54767;53.800;15.956;2022-10-16T15:52:57;3.50;;;3.20;;
67986;SDS011;54767;53.800;15.956;2022-10-16T15:55:24;7.00;;;4.10;;
67986;SDS011;54767;53.800;15.956;2022-10-16T15:57:52;4.50;;;3.60;;
67986;SDS011;54767;53.800;15.956;2022-10-16T16:00:22;3.30;;;2.90;;
67986;SDS011;54767;53.800;15.956;2022-10-16T16:02:52;4.10;;;3.40;;
67986;SDS011;54767;53.800;15.956;2022-10-16T16:05:20;4.50;;;3.20;;
67986;SDS011;54767;53.800;15.956;2022-10-16T16:07:48;6.50;;;4.10;;
67986;SDS011;54767;53.800;15.956;2022-10-16T16:10:16;9.50;;;4.90;;
67986;SDS011;54767;53.800;15.956;2022-10-16T16:13:02;11.10;;;5.10;;
67986;SDS011;54767;53.800;15.956;2022-10-16T16:18:52;11.10;;;5.60;;
67986;SDS011;54767;53.800;15.956;2022-10-16T16:21:35;12.30;;;7.10;;
67986;SDS011;54767;53.800;15.956;2022-10-16T16:24:03;7.60;;;5.30;;
67986;SDS011;54767;53.800;15.956;2022-10-16T16:30:28;11.90;;;7.30;;
67986;SDS011;54767;53.800;15.956;2022-10-16T16:32:55;11.30;;;6.80;;
67986;SDS011;54767;53.800;15.956;2022-10-16T16:38:46;12.00;;;7.30;;
67986;SDS011;54767;53.800;15.956;2022-10-16T16:41:39;11.70;;;6.90;;
67986;SDS011;54767;53.800;15.956;2022-10-16T16:47:49;16.60;;;7.50;;
67986;SDS011;54767;53.800;15.956;2022-10-16T16:51:22;14.10;;;8.20;;
67986;SDS011;54767;53.800;15.956;2022-10-16T16:58:06;18.40;;;9.10;;
67986;SDS011;54767;53.800;15.956;2022-10-16T17:00:45;14.40;;;8.00;;
67986;SDS011;54767;53.800;15.956;2022-10-16T17:03:23;16.20;;;8.20;;
67986;SDS011;54767;53.800;15.956;2022-10-16T17:05:58;14.90;;;8.90;;
67986;SDS011;54767;53.800;15.956;2022-10-16T17:08:25;16.70;;;9.20;;
67986;SDS011;54767;53.800;15.956;2022-10-16T17:10:52;17.50;;;10.20;;
67986;SDS011;54767;53.800;15.956;2022-10-16T17:13:27;17.90;;;9.80;;
67986;SDS011;54767;53.800;15.956;2022-10-16T17:16:31;17.50;;;9.00;;
67986;SDS011;54767;53.800;15.956;2022-10-16T17:23:45;16.50;;;8.80;;
67986;SDS011;54767;53.800;15.956;2022-10-16T17:26:15;16.20;;;8.00;;
67986;SDS011;54767;53.800;15.956;2022-10-16T17:28:43;12.20;;;6.20;;
67986;SDS011;54767;53.800;15.956;2022-10-16T17:31:18;11.20;;;5.50;;
67986;SDS011;54767;53.800;15.956;2022-10-16T17:33:47;10.40;;;5.20;;
67986;SDS011;54767;53.800;15.956;2022-10-16T17:36:14;9.20;;;5.40;;
67986;SDS011;54767;53.800;15.956;2022-10-16T17:38:41;6.40;;;4.50;;
67986;SDS011;54767;53.800;15.956;2022-10-16T17:41:24;7.50;;;4.50;;
67986;SDS011;54767;53.800;15.956;2022-10-16T17:43:52;7.10;;;4.00;;
67986;SDS011;54767;53.800;15.956;2022-10-16T17:46:28;6.00;;;4.00;;
67986;SDS011;54767;53.800;15.956;2022-10-16T17:49:15;7.10;;;4.30;;
67986;SDS011;54767;53.800;15.956;2022-10-16T17:51:53;8.30;;;4.90;;
67986;SDS011;54767;53.800;15.956;2022-10-16T17:54:24;11.00;;;6.80;;
67986;SDS011;54767;53.800;15.956;2022-10-16T17:56:55;10.10;;;6.00;;
67986;SDS011;54767;53.800;15.956;2022-10-16T18:02:48;14.30;;;8.10;;
67986;SDS011;54767;53.800;15.956;2022-10-16T18:05:23;13.20;;;7.30;;
67986;SDS011;54767;53.800;15.956;2022-10-16T18:08:15;10.30;;;7.00;;
67986;SDS011;54767;53.800;15.956;2022-10-16T18:22:16;6.90;;;4.20;;
67986;SDS011;54767;53.800;15.956;2022-10-16T18:25:36;5.10;;;3.70;;
67986;SDS011;54767;53.800;15.956;2022-10-16T18:29:17;7.10;;;3.90;;
67986;SDS011;54767;53.800;15.956;2022-10-16T18:35:35;5.80;;;3.90;;
67986;SDS011;54767;53.800;15.956;2022-10-16T18:38:16;4.90;;;3.60;;
67986;SDS011;54767;53.800;15.956;2022-10-16T18:41:05;4.30;;;3.60;;
67986;SDS011;54767;53.800;15.956;2022-10-16T18:43:46;4.30;;;3.80;;
67986;SDS011;54767;53.800;15.956;2022-10-16T18:54:22;3.40;;;2.90;;
67986;SDS011;54767;53.800;15.956;2022-10-16T18:59:29;6.20;;;3.20;;
67986;SDS011;54767;53.800;15.956;2022-10-16T19:01:56;7.30;;;3.60;;
67986;SDS011;54767;53.800;15.956;2022-10-16T19:17:57;7.40;;;3.60;;
67986;SDS011;54767;53.800;15.956;2022-10-16T19:21:20;5.40;;;3.90;;
67986;SDS011;54767;53.800;15.956;2022-10-16T19:24:55;8.30;;;5.70;;
67986;SDS011;54767;53.800;15.956;2022-10-16T19:28:32;7.30;;;4.70;;
67986;SDS011;54767;53.800;15.956;2022-10-16T19:34:38;5.00;;;3.30;;
67986;SDS011;54767;53.800;15.956;2022-10-16T19:37:21;5.90;;;3.50;;
67986;SDS011;54767;53.800;15.956;2022-10-16T19:41:26;4.20;;;3.20;;
67986;SDS011;54767;53.800;15.956;2022-10-16T19:43:59;38.70;;;5.50;;
67986;SDS011;54767;53.800;15.956;2022-10-16T19:51:51;7.30;;;3.40;;
67986;SDS011;54767;53.800;15.956;2022-10-16T19:54:21;3.60;;;3.00;;
67986;SDS011;54767;53.800;15.956;2022-10-16T19:56:48;4.00;;;2.90;;
67986;SDS011;54767;53.800;15.956;2022-10-16T19:59:20;3.40;;;2.70;;
67986;SDS011;54767;53.800;15.956;2022-10-16T20:01:55;3.50;;;2.80;;
67986;SDS011;54767;53.800;15.956;2022-10-16T20:04:22;3.90;;;3.10;;
67986;SDS011;54767;53.800;15.956;2022-10-16T20:06:50;5.10;;;3.30;;
67986;SDS011;54767;53.800;15.956;2022-10-16T20:09:17;4.10;;;3.10;;
67986;SDS011;54767;53.800;15.956;2022-10-16T20:11:45;3.60;;;3.00;;